sensor_id;sensor_type;location;lat;lon;timestamp;temperature;humidity
30865;DHT22;17574;49.418;11.038;2022-10-19T00:02:07;14.70;99.10
30865;DHT22;17574;49.418;11.038;2022-10-19T00:04:34;14.60;99.00
30865;DHT22;17574;49.418;11.038;2022-10-19T00:07:01;14.60;99.00
30865;DHT22;17574;49.418;11.038;2022-10-19T00:09:27;14.60;98.90
30865;DHT22;17574;49.418;11.038;2022-10-19T00:11:54;14.60;98.70
30865;DHT22;17574;49.418;11.038;2022-10-19T00:14:22;14.60;98.50
30865;DHT22;17574;49.418;11.038;2022-10-19T00:16:51;14.60;98.50
30865;DHT22;17574;49.418;11.038;2022-10-19T00:19:23;14.60;98.10
30865;DHT22;17574;49.418;11.038;2022-10-19T00:21:50;14.60;98.10
30865;DHT22;17574;49.418;11.038;2022-10-19T00:24:21;14.60;98.00
30865;DHT22;17574;49.418;11.038;2022-10-19T00:26:48;14.60;97.70
30865;DHT22;17574;49.418;11.038;2022-10-19T00:29:15;14.50;97.40
30865;DHT22;17574;49.418;11.038;2022-10-19T00:31:42;14.60;97.40
30865;DHT22;17574;49.418;11.038;2022-10-19T00:34:09;14.60;96.80
30865;DHT22;17574;49.418;11.038;2022-10-19T00:36:38;14.60;96.80
30865;DHT22;17574;49.418;11.038;2022-10-19T00:39:09;14.60;96.80
30865;DHT22;17574;49.418;11.038;2022-10-19T00:41:36;14.60;96.80
30865;DHT22;17574;49.418;11.038;2022-10-19T00:44:55;14.50;96.50
30865;DHT22;17574;49.418;11.038;2022-10-19T00:46:57;14.50;96.20
30865;DHT22;17574;49.418;11.038;2022-10-19T00:49:33;14.50;95.70
30865;DHT22;17574;49.418;11.038;2022-10-19T00:52:07;14.50;95.70
30865;DHT22;17574;49.418;11.038;2022-10-19T00:54:37;14.40;95.50
30865;DHT22;17574;49.418;11.038;2022-10-19T00:57:06;14.50;95.50
30865;DHT22;17574;49.418;11.038;2022-10-19T00:59:33;14.40;95.20
30865;DHT22;17574;49.418;11.038;2022-10-19T01:02:03;14.40;95.10
30865;DHT22;17574;49.418;11.038;2022-10-19T01:04:32;14.40;94.80
30865;DHT22;17574;49.418;11.038;2022-10-19T01:06:59;14.40;94.80
30865;DHT22;17574;49.418;11.038;2022-10-19T01:09:27;14.40;94.90
30865;DHT22;17574;49.418;11.038;2022-10-19T01:12:05;14.40;94.70
30865;DHT22;17574;49.418;11.038;2022-10-19T01:14:37;14.40;95.00
30865;DHT22;17574;49.418;11.038;2022-10-19T01:20:06;14.30;95.30
30865;DHT22;17574;49.418;11.038;2022-10-19T01:37:09;14.30;95.40
30865;DHT22;17574;49.418;11.038;2022-10-19T01:39:45;14.30;95.40
30865;DHT22;17574;49.418;11.038;2022-10-19T01:45:43;14.20;95.40
30865;DHT22;17574;49.418;11.038;2022-10-19T01:48:13;14.20;95.70
30865;DHT22;17574;49.418;11.038;2022-10-19T01:50:53;14.20;95.70
30865;DHT22;17574;49.418;11.038;2022-10-19T01:53:23;14.10;95.80
30865;DHT22;17574;49.418;11.038;2022-10-19T01:55:53;14.10;96.00
30865;DHT22;17574;49.418;11.038;2022-10-19T01:58:26;14.20;95.90
30865;DHT22;17574;49.418;11.038;2022-10-19T02:00:57;14.20;95.60
30865;DHT22;17574;49.418;11.038;2022-10-19T02:03:27;14.20;94.60
30865;DHT22;17574;49.418;11.038;2022-10-19T02:05:55;14.10;94.70
30865;DHT22;17574;49.418;11.038;2022-10-19T02:08:29;14.10;94.90
30865;DHT22;17574;49.418;11.038;2022-10-19T02:10:58;14.10;95.10
30865;DHT22;17574;49.418;11.038;2022-10-19T02:13:25;14.00;95.30
30865;DHT22;17574;49.418;11.038;2022-10-19T02:15:55;14.00;95.50
30865;DHT22;17574;49.418;11.038;2022-10-19T02:18:27;13.80;95.60
30865;DHT22;17574;49.418;11.038;2022-10-19T02:20:56;14.00;95.50
30865;DHT22;17574;49.418;11.038;2022-10-19T02:23:25;14.10;95.50
30865;DHT22;17574;49.418;11.038;2022-10-19T02:25:53;14.10;95.50
30865;DHT22;17574;49.418;11.038;2022-10-19T02:28:21;14.00;95.40
30865;DHT22;17574;49.418;11.038;2022-10-19T02:30:49;14.00;95.20
30865;DHT22;17574;49.418;11.038;2022-10-19T02:33:16;14.00;95.50
30865;DHT22;17574;49.418;11.038;2022-10-19T02:35:43;14.00;95.70
30865;DHT22;17574;49.418;11.038;2022-10-19T02:38:15;14.00;95.60
30865;DHT22;17574;49.418;11.038;2022-10-19T02:41:03;14.00;95.20
30865;DHT22;17574;49.418;11.038;2022-10-19T02:43:34;14.00;94.90
30865;DHT22;17574;49.418;11.038;2022-10-19T02:46:08;13.90;94.00
30865;DHT22;17574;49.418;11.038;2022-10-19T02:48:37;13.90;94.10
30865;DHT22;17574;49.418;11.038;2022-10-19T02:51:05;13.90;94.50
30865;DHT22;17574;49.418;11.038;2022-10-19T02:53:32;13.90;94.50
30865;DHT22;17574;49.418;11.038;2022-10-19T02:55:58;13.80;94.60
30865;DHT22;17574;49.418;11.038;2022-10-19T02:58:25;13.80;95.00
30865;DHT22;17574;49.418;11.038;2022-10-19T03:00:52;13.80;95.30
30865;DHT22;17574;49.418;11.038;2022-10-19T03:03:18;13.80;95.70
30865;DHT22;17574;49.418;11.038;2022-10-19T03:05:45;13.80;95.10
30865;DHT22;17574;49.418;11.038;2022-10-19T03:08:12;13.80;95.10
30865;DHT22;17574;49.418;11.038;2022-10-19T03:10:38;13.80;95.10
30865;DHT22;17574;49.418;11.038;2022-10-19T03:13:05;13.80;95.20
30865;DHT22;17574;49.418;11.038;2022-10-19T03:15:32;13.80;95.00
30865;DHT22;17574;49.418;11.038;2022-10-19T03:17:59;13.70;95.10
30865;DHT22;17574;49.418;11.038;2022-10-19T03:20:25;13.70;95.40
30865;DHT22;17574;49.418;11.038;2022-10-19T03:22:52;13.70;95.60
30865;DHT22;17574;49.418;11.038;2022-10-19T03:25:24;13.70;95.80
30865;DHT22;17574;49.418;11.038;2022-10-19T03:27:50;13.70;96.50
30865;DHT22;17574;49.418;11.038;2022-10-19T03:30:17;13.70;96.40
30865;DHT22;17574;49.418;11.038;2022-10-19T03:32:44;13.70;96.40
30865;DHT22;17574;49.418;11.038;2022-10-19T03:35:10;13.70;96.10
30865;DHT22;17574;49.418;11.038;2022-10-19T03:37:37;13.70;96.40
30865;DHT22;17574;49.418;11.038;2022-10-19T03:40:04;13.70;96.50
30865;DHT22;17574;49.418;11.038;2022-10-19T03:42:31;13.70;96.70
30865;DHT22;17574;49.418;11.038;2022-10-19T03:44:57;13.70;95.80
30865;DHT22;17574;49.418;11.038;2022-10-19T03:47:24;13.70;95.70
30865;DHT22;17574;49.418;11.038;2022-10-19T03:49:51;13.70;95.60
30865;DHT22;17574;49.418;11.038;2022-10-19T03:52:18;13.70;95.70
30865;DHT22;17574;49.418;11.038;2022-10-19T03:54:48;13.70;95.60
30865;DHT22;17574;49.418;11.038;2022-10-19T03:57:15;13.70;95.60
30865;DHT22;17574;49.418;11.038;2022-10-19T03:59:41;13.70;95.50
30865;DHT22;17574;49.418;11.038;2022-10-19T04:02:08;13.70;95.60
30865;DHT22;17574;49.418;11.038;2022-10-19T04:04:35;13.70;96.10
30865;DHT22;17574;49.418;11.038;2022-10-19T04:07:01;13.80;96.10
30865;DHT22;17574;49.418;11.038;2022-10-19T04:09:28;13.60;96.40
30865;DHT22;17574;49.418;11.038;2022-10-19T04:11:55;13.70;96.50
30865;DHT22;17574;49.418;11.038;2022-10-19T04:14:21;13.70;96.40
30865;DHT22;17574;49.418;11.038;2022-10-19T04:17:00;13.70;96.30
30865;DHT22;17574;49.418;11.038;2022-10-19T04:19:27;13.70;96.40
30865;DHT22;17574;49.418;11.038;2022-10-19T04:21:54;13.70;96.40
30865;DHT22;17574;49.418;11.038;2022-10-19T04:24:21;13.70;96.50
30865;DHT22;17574;49.418;11.038;2022-10-19T04:26:50;13.70;96.40
30865;DHT22;17574;49.418;11.038;2022-10-19T04:29:18;13.60;96.40
30865;DHT22;17574;49.418;11.038;2022-10-19T04:31:47;13.60;96.40
30865;DHT22;17574;49.418;11.038;2022-10-19T04:34:15;13.60;96.40
30865;DHT22;17574;49.418;11.038;2022-10-19T04:36:41;13.60;96.40
30865;DHT22;17574;49.418;11.038;2022-10-19T04:39:09;13.60;96.40
30865;DHT22;17574;49.418;11.038;2022-10-19T04:41:37;13.70;96.50
30865;DHT22;17574;49.418;11.038;2022-10-19T04:44:04;13.70;96.50
30865;DHT22;17574;49.418;11.038;2022-10-19T04:46:34;13.70;96.50
30865;DHT22;17574;49.418;11.038;2022-10-19T04:49:01;13.60;96.40
30865;DHT22;17574;49.418;11.038;2022-10-19T04:51:29;13.60;96.40
30865;DHT22;17574;49.418;11.038;2022-10-19T04:53:56;13.60;96.40
30865;DHT22;17574;49.418;11.038;2022-10-19T04:56:26;13.60;96.40
30865;DHT22;17574;49.418;11.038;2022-10-19T04:58:57;13.70;96.50
30865;DHT22;17574;49.418;11.038;2022-10-19T05:01:25;13.60;96.40
30865;DHT22;17574;49.418;11.038;2022-10-19T05:03:57;13.70;96.50
30865;DHT22;17574;49.418;11.038;2022-10-19T05:06:24;13.60;96.40
30865;DHT22;17574;49.418;11.038;2022-10-19T05:08:51;13.50;96.40
30865;DHT22;17574;49.418;11.038;2022-10-19T05:11:18;13.60;96.40
30865;DHT22;17574;49.418;11.038;2022-10-19T05:13:45;13.50;96.40
30865;DHT22;17574;49.418;11.038;2022-10-19T05:16:18;13.50;96.10
30865;DHT22;17574;49.418;11.038;2022-10-19T05:18:49;13.50;96.40
30865;DHT22;17574;49.418;11.038;2022-10-19T05:21:17;13.60;96.40
30865;DHT22;17574;49.418;11.038;2022-10-19T05:23:44;13.60;96.40
30865;DHT22;17574;49.418;11.038;2022-10-19T05:26:14;13.60;96.40
30865;DHT22;17574;49.418;11.038;2022-10-19T05:28:47;13.60;96.40
30865;DHT22;17574;49.418;11.038;2022-10-19T05:31:16;13.60;96.40
30865;DHT22;17574;49.418;11.038;2022-10-19T05:33:43;13.60;96.40
30865;DHT22;17574;49.418;11.038;2022-10-19T05:36:11;13.60;96.40
30865;DHT22;17574;49.418;11.038;2022-10-19T05:38:38;13.60;96.40
30865;DHT22;17574;49.418;11.038;2022-10-19T05:41:05;13.50;96.40
30865;DHT22;17574;49.418;11.038;2022-10-19T05:43:31;13.60;96.40
30865;DHT22;17574;49.418;11.038;2022-10-19T05:46:04;13.60;96.40
30865;DHT22;17574;49.418;11.038;2022-10-19T05:48:31;13.50;96.40
30865;DHT22;17574;49.418;11.038;2022-10-19T05:51:02;13.50;96.30
30865;DHT22;17574;49.418;11.038;2022-10-19T05:53:31;13.50;96.40
30865;DHT22;17574;49.418;11.038;2022-10-19T05:55:58;13.60;96.40
30865;DHT22;17574;49.418;11.038;2022-10-19T05:58:25;13.60;96.40
30865;DHT22;17574;49.418;11.038;2022-10-19T06:00:52;13.70;96.50
30865;DHT22;17574;49.418;11.038;2022-10-19T06:03:20;13.70;95.60
30865;DHT22;17574;49.418;11.038;2022-10-19T06:05:48;13.80;94.50
30865;DHT22;17574;49.418;11.038;2022-10-19T06:08:16;13.70;94.10
30865;DHT22;17574;49.418;11.038;2022-10-19T06:10:44;13.70;94.70
30865;DHT22;17574;49.418;11.038;2022-10-19T06:13:11;13.60;95.10
30865;DHT22;17574;49.418;11.038;2022-10-19T06:15:39;13.50;95.20
30865;DHT22;17574;49.418;11.038;2022-10-19T06:18:07;13.50;95.50
30865;DHT22;17574;49.418;11.038;2022-10-19T06:20:38;13.50;95.50
30865;DHT22;17574;49.418;11.038;2022-10-19T06:23:06;13.40;95.50
30865;DHT22;17574;49.418;11.038;2022-10-19T06:25:34;13.40;95.70
30865;DHT22;17574;49.418;11.038;2022-10-19T06:28:02;13.50;95.60
30865;DHT22;17574;49.418;11.038;2022-10-19T06:30:30;13.50;94.40
30865;DHT22;17574;49.418;11.038;2022-10-19T06:32:57;13.40;92.90
30865;DHT22;17574;49.418;11.038;2022-10-19T06:35:24;13.40;93.00
30865;DHT22;17574;49.418;11.038;2022-10-19T06:37:51;13.40;93.20
30865;DHT22;17574;49.418;11.038;2022-10-19T06:40:18;13.40;93.70
30865;DHT22;17574;49.418;11.038;2022-10-19T06:42:44;13.50;94.10
30865;DHT22;17574;49.418;11.038;2022-10-19T06:45:11;13.50;94.20
30865;DHT22;17574;49.418;11.038;2022-10-19T06:47:38;13.50;94.10
30865;DHT22;17574;49.418;11.038;2022-10-19T06:50:05;13.50;93.80
30865;DHT22;17574;49.418;11.038;2022-10-19T06:52:34;13.60;92.90
30865;DHT22;17574;49.418;11.038;2022-10-19T06:55:01;13.60;92.10
30865;DHT22;17574;49.418;11.038;2022-10-19T06:57:28;13.60;91.90
30865;DHT22;17574;49.418;11.038;2022-10-19T06:59:55;13.60;90.80
30865;DHT22;17574;49.418;11.038;2022-10-19T07:02:22;13.60;90.40
30865;DHT22;17574;49.418;11.038;2022-10-19T07:04:49;13.60;90.30
30865;DHT22;17574;49.418;11.038;2022-10-19T07:07:16;13.60;90.50
30865;DHT22;17574;49.418;11.038;2022-10-19T07:09:42;13.60;88.70
30865;DHT22;17574;49.418;11.038;2022-10-19T07:12:09;13.50;88.60
30865;DHT22;17574;49.418;11.038;2022-10-19T07:14:36;13.50;88.60
30865;DHT22;17574;49.418;11.038;2022-10-19T07:17:06;13.50;89.60
30865;DHT22;17574;49.418;11.038;2022-10-19T07:19:33;13.60;90.20
30865;DHT22;17574;49.418;11.038;2022-10-19T07:22:00;13.60;90.20
30865;DHT22;17574;49.418;11.038;2022-10-19T07:24:27;13.60;90.80
30865;DHT22;17574;49.418;11.038;2022-10-19T07:26:54;13.60;90.50
30865;DHT22;17574;49.418;11.038;2022-10-19T07:29:21;13.70;88.70
30865;DHT22;17574;49.418;11.038;2022-10-19T07:31:47;13.60;86.70
30865;DHT22;17574;49.418;11.038;2022-10-19T07:34:14;13.50;88.50
30865;DHT22;17574;49.418;11.038;2022-10-19T07:36:44;13.60;89.00
30865;DHT22;17574;49.418;11.038;2022-10-19T07:39:11;13.60;88.80
30865;DHT22;17574;49.418;11.038;2022-10-19T07:41:38;13.70;89.20
30865;DHT22;17574;49.418;11.038;2022-10-19T07:44:05;13.70;88.70
30865;DHT22;17574;49.418;11.038;2022-10-19T07:46:35;13.60;88.70
30865;DHT22;17574;49.418;11.038;2022-10-19T07:49:05;13.60;88.70
30865;DHT22;17574;49.418;11.038;2022-10-19T07:51:32;13.70;89.70
30865;DHT22;17574;49.418;11.038;2022-10-19T07:53:59;13.70;88.70
30865;DHT22;17574;49.418;11.038;2022-10-19T07:56:26;13.70;88.70
30865;DHT22;17574;49.418;11.038;2022-10-19T07:58:54;13.80;88.10
30865;DHT22;17574;49.418;11.038;2022-10-19T08:01:25;13.80;88.40
30865;DHT22;17574;49.418;11.038;2022-10-19T08:03:54;13.90;87.30
30865;DHT22;17574;49.418;11.038;2022-10-19T08:06:41;13.90;85.20
30865;DHT22;17574;49.418;11.038;2022-10-19T08:09:07;14.00;85.90
30865;DHT22;17574;49.418;11.038;2022-10-19T08:11:34;14.00;85.20
30865;DHT22;17574;49.418;11.038;2022-10-19T08:14:01;14.00;83.50
30865;DHT22;17574;49.418;11.038;2022-10-19T08:16:32;14.00;83.10
30865;DHT22;17574;49.418;11.038;2022-10-19T08:19:00;14.10;80.90
30865;DHT22;17574;49.418;11.038;2022-10-19T08:21:28;14.10;79.80
30865;DHT22;17574;49.418;11.038;2022-10-19T08:23:55;14.10;81.20
30865;DHT22;17574;49.418;11.038;2022-10-19T08:26:22;14.10;81.60
30865;DHT22;17574;49.418;11.038;2022-10-19T08:28:48;14.20;81.00
30865;DHT22;17574;49.418;11.038;2022-10-19T08:31:16;14.20;80.90
30865;DHT22;17574;49.418;11.038;2022-10-19T08:33:44;14.20;81.00
30865;DHT22;17574;49.418;11.038;2022-10-19T08:36:11;14.30;77.30
30865;DHT22;17574;49.418;11.038;2022-10-19T08:38:39;14.30;76.60
30865;DHT22;17574;49.418;11.038;2022-10-19T08:41:07;14.20;77.30
30865;DHT22;17574;49.418;11.038;2022-10-19T08:43:39;14.20;78.50
30865;DHT22;17574;49.418;11.038;2022-10-19T08:48:38;14.40;77.40
30865;DHT22;17574;49.418;11.038;2022-10-19T08:51:09;14.40;76.50
30865;DHT22;17574;49.418;11.038;2022-10-19T08:56:09;14.50;75.20
30865;DHT22;17574;49.418;11.038;2022-10-19T09:01:56;14.60;71.00
30865;DHT22;17574;49.418;11.038;2022-10-19T09:04:32;14.60;70.50
30865;DHT22;17574;49.418;11.038;2022-10-19T09:07:06;14.50;72.80
30865;DHT22;17574;49.418;11.038;2022-10-19T09:09:42;14.50;74.10
30865;DHT22;17574;49.418;11.038;2022-10-19T09:12:11;14.50;73.20
30865;DHT22;17574;49.418;11.038;2022-10-19T09:17:32;14.40;72.70
30865;DHT22;17574;49.418;11.038;2022-10-19T09:20:12;14.30;72.60
30865;DHT22;17574;49.418;11.038;2022-10-19T09:22:39;14.20;72.50
30865;DHT22;17574;49.418;11.038;2022-10-19T09:25:19;14.30;75.60
30865;DHT22;17574;49.418;11.038;2022-10-19T09:27:48;14.30;75.20
30865;DHT22;17574;49.418;11.038;2022-10-19T09:30:18;14.40;75.90
30865;DHT22;17574;49.418;11.038;2022-10-19T09:32:45;14.40;72.70
30865;DHT22;17574;49.418;11.038;2022-10-19T09:37:43;14.50;72.80
30865;DHT22;17574;49.418;11.038;2022-10-19T09:40:18;14.60;72.90
30865;DHT22;17574;49.418;11.038;2022-10-19T09:42:45;14.60;72.90
30865;DHT22;17574;49.418;11.038;2022-10-19T09:45:13;14.70;73.00
30865;DHT22;17574;49.418;11.038;2022-10-19T09:47:41;14.70;70.40
30865;DHT22;17574;49.418;11.038;2022-10-19T09:52:41;14.80;70.70
30865;DHT22;17574;49.418;11.038;2022-10-19T09:55:19;14.90;68.00
30865;DHT22;17574;49.418;11.038;2022-10-19T09:57:49;14.80;67.80
30865;DHT22;17574;49.418;11.038;2022-10-19T10:00:19;14.70;68.30
30865;DHT22;17574;49.418;11.038;2022-10-19T10:02:50;14.60;72.50
30865;DHT22;17574;49.418;11.038;2022-10-19T10:05:17;14.70;73.00
30865;DHT22;17574;49.418;11.038;2022-10-19T10:07:44;14.70;71.90
30865;DHT22;17574;49.418;11.038;2022-10-19T10:10:18;14.80;69.00
30865;DHT22;17574;49.418;11.038;2022-10-19T10:12:45;14.80;67.70
30865;DHT22;17574;49.418;11.038;2022-10-19T10:15:23;14.80;67.90
30865;DHT22;17574;49.418;11.038;2022-10-19T10:17:50;14.70;66.70
30865;DHT22;17574;49.418;11.038;2022-10-19T10:20:27;14.70;68.90
30865;DHT22;17574;49.418;11.038;2022-10-19T10:22:56;14.80;68.70
30865;DHT22;17574;49.418;11.038;2022-10-19T10:25:25;14.80;64.30
30865;DHT22;17574;49.418;11.038;2022-10-19T10:27:53;14.90;64.40
30865;DHT22;17574;49.418;11.038;2022-10-19T10:30:20;14.90;65.40
30865;DHT22;17574;49.418;11.038;2022-10-19T10:32:50;14.90;66.80
30865;DHT22;17574;49.418;11.038;2022-10-19T10:37:50;14.80;65.80
30865;DHT22;17574;49.418;11.038;2022-10-19T10:42:49;14.90;64.40
30865;DHT22;17574;49.418;11.038;2022-10-19T10:47:43;15.00;64.90
30865;DHT22;17574;49.418;11.038;2022-10-19T10:50:19;15.10;64.50
30865;DHT22;17574;49.418;11.038;2022-10-19T10:53:00;15.20;65.90
30865;DHT22;17574;49.418;11.038;2022-10-19T10:55:28;15.30;62.40
30865;DHT22;17574;49.418;11.038;2022-10-19T10:58:06;15.50;58.30
30865;DHT22;17574;49.418;11.038;2022-10-19T11:00:37;15.60;55.20
30865;DHT22;17574;49.418;11.038;2022-10-19T11:03:07;15.60;50.70
30865;DHT22;17574;49.418;11.038;2022-10-19T11:05:37;15.70;51.20
30865;DHT22;17574;49.418;11.038;2022-10-19T11:08:11;15.70;48.20
30865;DHT22;17574;49.418;11.038;2022-10-19T11:13:29;15.60;49.90
30865;DHT22;17574;49.418;11.038;2022-10-19T11:16:01;15.60;48.90
30865;DHT22;17574;49.418;11.038;2022-10-19T11:18:33;15.60;50.90
30865;DHT22;17574;49.418;11.038;2022-10-19T11:21:03;15.70;50.90
30865;DHT22;17574;49.418;11.038;2022-10-19T11:28:32;15.70;49.00
30865;DHT22;17574;49.418;11.038;2022-10-19T11:31:08;15.70;44.50
30865;DHT22;17574;49.418;11.038;2022-10-19T11:33:39;15.80;47.40
30865;DHT22;17574;49.418;11.038;2022-10-19T11:38:48;15.90;47.20
30865;DHT22;17574;49.418;11.038;2022-10-19T11:41:22;16.00;44.20
30865;DHT22;17574;49.418;11.038;2022-10-19T11:46:33;16.30;40.10
30865;DHT22;17574;49.418;11.038;2022-10-19T11:51:46;16.40;38.70
30865;DHT22;17574;49.418;11.038;2022-10-19T11:57:12;16.80;34.30
30865;DHT22;17574;49.418;11.038;2022-10-19T12:07:19;18.50;18.40
30865;DHT22;17574;49.418;11.038;2022-10-19T12:09:57;20.10;8.70
30865;DHT22;17574;49.418;11.038;2022-10-19T12:12:40;21.20;1.00
30865;DHT22;17574;49.418;11.038;2022-10-19T12:17:37;20.60;1.00
30865;DHT22;17574;49.418;11.038;2022-10-19T12:20:07;20.40;1.00
30865;DHT22;17574;49.418;11.038;2022-10-19T12:22:34;20.50;1.00
30865;DHT22;17574;49.418;11.038;2022-10-19T12:25:03;21.30;1.00
30865;DHT22;17574;49.418;11.038;2022-10-19T12:27:34;22.50;1.00
30865;DHT22;17574;49.418;11.038;2022-10-19T12:30:03;23.30;1.00
30865;DHT22;17574;49.418;11.038;2022-10-19T12:32:32;23.60;1.00
30865;DHT22;17574;49.418;11.038;2022-10-19T12:37:54;23.90;1.00
30865;DHT22;17574;49.418;11.038;2022-10-19T12:40:25;24.40;1.00
30865;DHT22;17574;49.418;11.038;2022-10-19T12:43:02;24.10;1.00
30865;DHT22;17574;49.418;11.038;2022-10-19T12:45:32;23.70;1.00
30865;DHT22;17574;49.418;11.038;2022-10-19T12:50:56;23.60;1.00
30865;DHT22;17574;49.418;11.038;2022-10-19T13:03:43;20.40;1.00
30865;DHT22;17574;49.418;11.038;2022-10-19T13:06:11;20.00;1.00
30865;DHT22;17574;49.418;11.038;2022-10-19T13:08:42;19.60;1.00
30865;DHT22;17574;49.418;11.038;2022-10-19T13:11:11;19.50;1.40
30865;DHT22;17574;49.418;11.038;2022-10-19T13:13:46;19.30;3.50
30865;DHT22;17574;49.418;11.038;2022-10-19T13:29:25;22.60;1.00
30865;DHT22;17574;49.418;11.038;2022-10-19T13:31:52;22.60;1.00
30865;DHT22;17574;49.418;11.038;2022-10-19T13:34:19;22.80;1.00
30865;DHT22;17574;49.418;11.038;2022-10-19T13:36:59;22.70;1.00
30865;DHT22;17574;49.418;11.038;2022-10-19T13:39:28;22.30;1.00
30865;DHT22;17574;49.418;11.038;2022-10-19T13:41:55;22.30;1.00
30865;DHT22;17574;49.418;11.038;2022-10-19T13:44:27;22.30;1.00
30865;DHT22;17574;49.418;11.038;2022-10-19T13:47:28;22.30;1.00
30865;DHT22;17574;49.418;11.038;2022-10-19T13:58:47;21.80;1.00
30865;DHT22;17574;49.418;11.038;2022-10-19T14:01:50;21.80;1.00
30865;DHT22;17574;49.418;11.038;2022-10-19T14:04:25;21.50;1.00
30865;DHT22;17574;49.418;11.038;2022-10-19T14:07:09;20.90;1.00
30865;DHT22;17574;49.418;11.038;2022-10-19T14:10:04;20.80;1.00
30865;DHT22;17574;49.418;11.038;2022-10-19T14:12:34;20.60;1.00
30865;DHT22;17574;49.418;11.038;2022-10-19T14:15:33;20.50;1.00
30865;DHT22;17574;49.418;11.038;2022-10-19T14:17:58;20.50;1.00
30865;DHT22;17574;49.418;11.038;2022-10-19T14:20:36;20.40;1.00
30865;DHT22;17574;49.418;11.038;2022-10-19T14:23:22;20.40;1.00
30865;DHT22;17574;49.418;11.038;2022-10-19T14:25:58;20.20;1.00
30865;DHT22;17574;49.418;11.038;2022-10-19T14:28:27;20.10;1.00
30865;DHT22;17574;49.418;11.038;2022-10-19T14:31:06;20.10;1.00
30865;DHT22;17574;49.418;11.038;2022-10-19T14:33:40;20.20;1.00
30865;DHT22;17574;49.418;11.038;2022-10-19T14:36:18;20.20;1.00
30865;DHT22;17574;49.418;11.038;2022-10-19T14:38:46;20.00;1.00
30865;DHT22;17574;49.418;11.038;2022-10-19T14:41:39;20.00;1.00
30865;DHT22;17574;49.418;11.038;2022-10-19T14:47:23;19.60;1.00
30865;DHT22;17574;49.418;11.038;2022-10-19T14:49:52;19.40;1.00
30865;DHT22;17574;49.418;11.038;2022-10-19T14:52:24;19.30;1.00
30865;DHT22;17574;49.418;11.038;2022-10-19T14:54:59;19.20;1.00
30865;DHT22;17574;49.418;11.038;2022-10-19T14:57:34;19.10;1.00
30865;DHT22;17574;49.418;11.038;2022-10-19T15:00:10;19.10;1.00
30865;DHT22;17574;49.418;11.038;2022-10-19T15:03:02;19.00;1.00
30865;DHT22;17574;49.418;11.038;2022-10-19T15:05:32;19.00;1.00
30865;DHT22;17574;49.418;11.038;2022-10-19T15:08:18;19.00;1.00
30865;DHT22;17574;49.418;11.038;2022-10-19T15:10:46;18.80;1.00
30865;DHT22;17574;49.418;11.038;2022-10-19T15:13:23;18.70;1.00
30865;DHT22;17574;49.418;11.038;2022-10-19T15:15:51;18.70;1.00
30865;DHT22;17574;49.418;11.038;2022-10-19T15:18:22;18.70;1.00
30865;DHT22;17574;49.418;11.038;2022-10-19T15:21:13;18.80;1.00
30865;DHT22;17574;49.418;11.038;2022-10-19T15:23:43;19.40;15.60
30865;DHT22;17574;49.418;11.038;2022-10-19T15:26:39;19.20;1.00
30865;DHT22;17574;49.418;11.038;2022-10-19T15:29:21;18.80;1.00
30865;DHT22;17574;49.418;11.038;2022-10-19T15:31:49;18.50;1.00
30865;DHT22;17574;49.418;11.038;2022-10-19T15:34:27;18.20;3.20
30865;DHT22;17574;49.418;11.038;2022-10-19T15:36:57;18.10;4.80
30865;DHT22;17574;49.418;11.038;2022-10-19T15:39:31;17.90;6.10
30865;DHT22;17574;49.418;11.038;2022-10-19T15:42:35;17.90;6.10
30865;DHT22;17574;49.418;11.038;2022-10-19T15:45:33;17.70;6.40
30865;DHT22;17574;49.418;11.038;2022-10-19T15:50:39;17.50;10.70
30865;DHT22;17574;49.418;11.038;2022-10-19T15:53:07;17.30;11.50
30865;DHT22;17574;49.418;11.038;2022-10-19T15:55:34;17.30;11.30
30865;DHT22;17574;49.418;11.038;2022-10-19T15:58:01;17.10;13.70
30865;DHT22;17574;49.418;11.038;2022-10-19T16:00:29;17.10;15.20
30865;DHT22;17574;49.418;11.038;2022-10-19T16:02:56;16.90;15.10
30865;DHT22;17574;49.418;11.038;2022-10-19T16:05:23;16.90;15.80
30865;DHT22;17574;49.418;11.038;2022-10-19T16:07:49;16.70;15.90
30865;DHT22;17574;49.418;11.038;2022-10-19T16:10:19;16.70;16.80
30865;DHT22;17574;49.418;11.038;2022-10-19T16:12:46;16.50;17.70
30865;DHT22;17574;49.418;11.038;2022-10-19T16:15:15;16.50;19.10
30865;DHT22;17574;49.418;11.038;2022-10-19T16:17:46;16.40;19.40
30865;DHT22;17574;49.418;11.038;2022-10-19T16:20:14;16.30;22.80
30865;DHT22;17574;49.418;11.038;2022-10-19T16:22:42;16.20;24.00
30865;DHT22;17574;49.418;11.038;2022-10-19T16:25:09;16.00;24.60
30865;DHT22;17574;49.418;11.038;2022-10-19T16:27:36;15.90;26.60
30865;DHT22;17574;49.418;11.038;2022-10-19T16:30:04;15.90;28.30
30865;DHT22;17574;49.418;11.038;2022-10-19T16:32:31;15.80;28.70
30865;DHT22;17574;49.418;11.038;2022-10-19T16:34:58;15.70;29.80
30865;DHT22;17574;49.418;11.038;2022-10-19T16:37:25;15.60;31.60
30865;DHT22;17574;49.418;11.038;2022-10-19T16:39:52;15.50;33.00
30865;DHT22;17574;49.418;11.038;2022-10-19T16:42:19;15.40;32.90
30865;DHT22;17574;49.418;11.038;2022-10-19T16:44:46;15.30;33.70
30865;DHT22;17574;49.418;11.038;2022-10-19T16:47:12;15.20;35.40
30865;DHT22;17574;49.418;11.038;2022-10-19T16:49:39;15.20;36.80
30865;DHT22;17574;49.418;11.038;2022-10-19T16:52:05;15.20;36.30
30865;DHT22;17574;49.418;11.038;2022-10-19T16:54:32;15.20;36.00
30865;DHT22;17574;49.418;11.038;2022-10-19T16:56:59;15.10;38.30
30865;DHT22;17574;49.418;11.038;2022-10-19T16:59:25;15.00;39.50
30865;DHT22;17574;49.418;11.038;2022-10-19T17:01:52;14.90;40.30
30865;DHT22;17574;49.418;11.038;2022-10-19T17:04:19;14.90;39.50
30865;DHT22;17574;49.418;11.038;2022-10-19T17:06:46;14.80;40.50
30865;DHT22;17574;49.418;11.038;2022-10-19T17:09:13;14.90;38.50
30865;DHT22;17574;49.418;11.038;2022-10-19T17:11:59;14.70;37.90
30865;DHT22;17574;49.418;11.038;2022-10-19T17:14:26;14.70;38.10
30865;DHT22;17574;49.418;11.038;2022-10-19T17:16:53;14.60;40.30
30865;DHT22;17574;49.418;11.038;2022-10-19T17:19:20;14.60;40.00
30865;DHT22;17574;49.418;11.038;2022-10-19T17:21:46;14.60;40.80
30865;DHT22;17574;49.418;11.038;2022-10-19T17:24:17;14.50;42.00
30865;DHT22;17574;49.418;11.038;2022-10-19T17:26:48;14.50;43.30
30865;DHT22;17574;49.418;11.038;2022-10-19T17:29:16;14.40;43.20
30865;DHT22;17574;49.418;11.038;2022-10-19T17:31:43;14.40;43.20
30865;DHT22;17574;49.418;11.038;2022-10-19T17:34:10;14.30;43.30